Minden, NV

6:14 AM PDT on August 22, 2014 (GMT -0700)
Saratoga Springs | Change Station
CLOSE
Current Station
Personal Weather Station
Location: Minden, NV
Elevation: 4700 ft
Nearby Weather Stations
Active Advisory: Fire Weather Warning

Elev 4700 ft 39.05 °N, 119.74 °W | Updated 1 second ago

Clear
Clear
50.5 °F
Feels Like 50.5 °F
N
0.0
Wind Variable Wind from NNE
Gusts 0.0 mph

Today
High -- | Low -- °F
--% Chance of Precip.
Yesterday
High -- | Low -- °F
Precip. -- in
6:18 AM 7:44 PM
Waning Crescent, 8% visible
Pressure 30.04 in
Visibility 10.0 miles
Clouds Clear
Dew Point 34 °F
Humidity 54%
Rainfall 0.00 in
Snow Depth 0 in , 0 in
UV 0 out of 12
Pollen 7.90 out of 12
Air Quality Not available.
Flu Activity Not available.
METAR KCXP 221255Z AUTO 13003KT 10SM CLR 12/02 A3004 RMK AO2

More Conditions Fewer Conditions

Pressure 30.04 in
Visibility 10.0 miles
Clouds Clear
Dew Point 34 °F
Humidity 54%
Rainfall 0.00 in
Snow Depth 0 in , 0 in
UV 0 out of 12
Pollen 7.90 out of 12
Air Quality Not available.
Flu Activity Not available.
METAR KCXP 221255Z AUTO 13003KT 10SM CLR 12/02 A3004 RMK AO2

More Conditions Fewer Conditions

10-Day Weather Forecast

Almanac

Astronomy

Aug. 22, 2014 Rise Set
Actual Time 6:18 AM PDT 7:44 PM PDT
Civil Twilight 5:50 AM PDT 8:12 PM PDT
Nautical Twilight 5:17 AM PDT 8:45 PM PDT
Astronomical Twilight 4:41 AM PDT 9:20 PM PDT
Moon 3:46 AM PDT 5:55 PM PDT
Length of Visible Light 14h 21m
Length of Day
13h 25m
Tomorrow will be 2m 21s shorter.
Waning Crescent, 8% of the Moon is Illuminated
Today
Waning Crescent
Aug 25
New
Sep 2
First Quarter
Sep 8
Full
Sep 15
Last Quarter

Today's Extremes

State Highs State Lows

Community

WunderPhotos

Upload Photos

1,746,160 photos uploaded!

WunderBlogs® & News

Nearby

Snow Depth

Station Depth Elevation
Marlette Lake 0 in 8000 ft
Mt. Rose Ski Area 0 in 8850 ft
Big Creek Summit 1 in 8700 ft
Lewis Peak 0 in 7400 ft
Lamance Creek 1 in 6000 ft

Earthquake Activity

City Distance Mag. Time & Date
No recent earthquake activity has been reported nearby.
Minimum magnitude displayed is 2.5.

Coastal Water Temperatures

Place Temperature
No Stations Reporting

Nearby Weather Stations